createdAt,value
2023-04-08T00:04:12.965Z,99946.03
2023-04-08T00:09:04.911Z,99955.63
2023-04-08T00:13:57.052Z,99942.78
2023-04-08T00:18:49.977Z,99948.16
2023-04-08T00:23:41.969Z,99946.72
2023-04-08T00:28:33.633Z,99947.91
2023-04-08T00:33:26.003Z,99947.47
2023-04-08T00:38:18.010Z,99950.53
2023-04-08T00:43:09.849Z,99942.16
2023-04-08T00:48:04.196Z,99951.28
2023-04-08T00:52:55.955Z,99953.50
2023-04-08T00:57:48.241Z,99951.53
2023-04-08T01:03:06.073Z,99952.28
2023-04-08T01:08:00.510Z,99954.91
2023-04-08T01:12:55.687Z,99948.38
2023-04-08T01:17:50.794Z,99960.75
2023-04-08T01:23:00.675Z,99958.97
2023-04-08T01:27:56.527Z,99956.84
2023-04-08T01:32:48.780Z,99964.97
2023-04-08T01:37:42.377Z,99969.06
2023-04-08T01:42:35.460Z,99962.91
2023-04-08T01:47:29.811Z,99976.09
2023-04-08T01:52:23.115Z,99967.22
2023-04-08T01:57:22.048Z,99969.81
2023-04-08T02:02:17.089Z,99980.06
2023-04-08T02:07:09.582Z,99986.00
2023-04-08T02:12:01.583Z,99985.53
2023-04-08T02:17:09.722Z,99986.72
2023-04-08T02:22:14.796Z,99984.75
2023-04-08T02:27:10.623Z,99980.94
2023-04-08T02:32:05.555Z,99986.13
2023-04-08T02:36:57.340Z,99987.16
2023-04-08T02:41:50.592Z,99990.84
2023-04-08T02:46:42.296Z,99991.03
2023-04-08T02:51:35.077Z,99989.53
2023-04-08T02:56:26.771Z,99999.63
2023-04-08T03:01:18.492Z,100001.84
2023-04-08T03:06:10.888Z,100001.03
2023-04-08T03:11:03.603Z,100003.88
2023-04-08T03:15:55.960Z,100006.94
2023-04-08T03:20:47.588Z,100008.13
2023-04-08T03:25:39.203Z,100009.81
2023-04-08T03:30:30.850Z,100003.25
2023-04-08T03:35:23.004Z,100000.56
2023-04-08T03:40:14.764Z,100011.50
2023-04-08T03:45:06.967Z,100013.56
2023-04-08T03:49:58.626Z,100011.22
2023-04-08T03:54:50.357Z,100011.56
2023-04-08T03:59:42.591Z,100010.06
2023-04-08T04:04:37.104Z,100027.03
2023-04-08T04:09:28.886Z,100014.97
2023-04-08T04:14:20.548Z,100025.53
2023-04-08T04:19:12.214Z,100010.75
2023-04-08T04:24:04.073Z,100015.47
2023-04-08T04:28:56.034Z,100015.66
2023-04-08T04:33:48.178Z,100023.91
2023-04-08T04:38:39.866Z,100025.06
2023-04-08T04:43:31.499Z,100028.97
2023-04-08T04:48:23.467Z,100036.34
2023-04-08T04:53:15.053Z,100023.59
2023-04-08T04:58:06.827Z,100037.91
2023-04-08T05:02:59.171Z,100053.34
2023-04-08T05:07:50.829Z,100042.13
2023-04-08T05:12:42.472Z,100044.50
2023-04-08T05:17:34.254Z,100054.38
2023-04-08T05:22:26.009Z,100048.53
2023-04-08T05:27:17.634Z,100057.41
2023-04-08T05:32:09.465Z,100050.91
2023-04-08T05:37:01.318Z,100049.03
2023-04-08T05:41:52.938Z,100063.47
2023-04-08T05:46:44.606Z,100082.13
2023-04-08T05:51:36.217Z,100080.28
2023-04-08T05:56:27.818Z,100083.97
2023-04-08T06:01:19.493Z,100081.59
2023-04-08T06:06:11.986Z,100094.88
2023-04-08T06:11:06.753Z,100109.47
2023-04-08T06:15:59.062Z,100101.00
2023-04-08T06:20:51.288Z,100109.13
2023-04-08T06:25:43.207Z,100094.75
2023-04-08T06:30:35.041Z,100095.41
2023-04-08T06:35:28.283Z,100104.16
2023-04-08T06:40:20.264Z,100105.16
2023-04-08T06:45:11.945Z,100122.78
2023-04-08T06:50:03.697Z,100107.63
2023-04-08T06:54:55.309Z,100120.19
2023-04-08T06:59:47.023Z,100119.19
2023-04-08T07:04:38.643Z,100124.00
2023-04-08T07:09:31.578Z,100113.53
2023-04-08T07:14:23.233Z,100118.81
2023-04-08T07:19:14.973Z,100126.03
2023-04-08T07:24:06.744Z,100119.88
2023-04-08T07:28:58.458Z,100126.00
2023-04-08T07:33:50.317Z,100129.50
2023-04-08T07:38:42.220Z,100136.09
2023-04-08T07:43:37.523Z,100145.19
2023-04-08T07:48:30.387Z,100159.59
2023-04-08T07:53:24.008Z,100158.59
2023-04-08T07:58:15.933Z,100156.91
2023-04-08T08:03:07.786Z,100169.53
2023-04-08T08:07:59.594Z,100152.00
2023-04-08T08:12:51.299Z,100161.69
2023-04-08T08:17:42.934Z,100164.03
2023-04-08T08:22:37.993Z,100166.53
2023-04-08T08:27:34.550Z,100176.94
2023-04-08T08:32:26.286Z,100176.28
2023-04-08T08:37:17.962Z,100188.50
2023-04-08T08:42:27.674Z,100171.38
2023-04-08T08:47:19.460Z,100180.44
2023-04-08T08:52:11.763Z,100189.31
2023-04-08T08:57:03.456Z,100186.59
2023-04-08T09:01:55.271Z,100191.69
2023-04-08T09:06:48.961Z,100191.53
2023-04-08T09:11:46.249Z,100190.03
2023-04-08T09:16:43.047Z,100188.47
2023-04-08T09:21:35.677Z,100189.16
2023-04-08T09:26:27.712Z,100186.31
2023-04-08T09:31:21.585Z,100189.41
2023-04-08T09:36:13.267Z,100189.22
2023-04-08T09:41:08.982Z,100203.19
2023-04-08T09:46:04.383Z,100200.16
2023-04-08T09:50:57.900Z,100193.84
2023-04-08T09:55:55.413Z,100188.91
2023-04-08T10:00:51.002Z,100205.34
2023-04-08T10:05:43.954Z,100202.91
2023-04-08T10:10:38.653Z,100213.50
2023-04-08T10:15:34.548Z,100190.75
2023-04-08T10:20:38.088Z,100191.59
2023-04-08T10:25:34.117Z,100190.13
2023-04-08T10:30:28.597Z,100186.09
2023-04-08T10:35:33.312Z,100191.03
2023-04-08T10:40:24.986Z,100193.78
2023-04-08T10:45:18.374Z,100184.16
2023-04-08T10:50:18.109Z,100175.78
2023-04-08T10:55:09.986Z,100175.78
2023-04-08T11:00:02.592Z,100165.91
2023-04-08T11:04:54.506Z,100172.28
2023-04-08T11:09:46.203Z,100169.00
2023-04-08T11:14:41.341Z,100166.16
2023-04-08T11:19:33.610Z,100179.13
2023-04-08T11:24:25.926Z,100162.44
2023-04-08T11:29:17.589Z,100162.06
2023-04-08T11:34:09.461Z,100156.28
2023-04-08T11:39:01.098Z,100162.34
2023-04-08T11:43:57.097Z,100152.72
2023-04-08T11:48:59.720Z,100160.28
2023-04-08T11:53:54.626Z,100153.91
2023-04-08T11:58:48.020Z,100158.16
2023-04-08T12:03:40.187Z,100154.97
2023-04-08T12:08:31.848Z,100154.88
2023-04-08T12:13:23.448Z,100151.00
2023-04-08T12:18:15.057Z,100150.28
2023-04-08T12:23:08.179Z,100158.88
2023-04-08T12:27:59.850Z,100156.69
2023-04-08T12:32:51.526Z,100141.06
2023-04-08T12:37:43.321Z,100140.38
2023-04-08T12:42:35.286Z,100144.63
2023-04-08T12:47:27.111Z,100136.31
2023-04-08T12:52:18.879Z,100124.03
2023-04-08T12:57:10.857Z,100128.38
2023-04-08T13:02:02.498Z,100127.69
2023-04-08T13:06:54.186Z,100124.50
2023-04-08T13:11:45.921Z,100124.97
2023-04-08T13:16:38.249Z,100127.69
2023-04-08T13:21:30.026Z,100119.63
2023-04-08T13:26:22.510Z,100115.66
2023-04-08T13:31:14.177Z,100124.03
2023-04-08T13:36:06.192Z,100128.16
2023-04-08T13:40:57.857Z,100128.03
2023-04-08T13:45:49.624Z,100119.72
2023-04-08T13:50:42.455Z,100109.84
2023-04-08T13:55:34.242Z,100099.75
2023-04-08T14:00:26.386Z,100099.84
2023-04-08T14:05:18.385Z,100098.78
2023-04-08T14:10:10.530Z,100091.81
2023-04-08T14:15:03.009Z,100094.41
2023-04-08T14:19:54.630Z,100086.03
2023-04-08T14:24:46.284Z,100081.38
2023-04-08T14:29:37.907Z,100072.63
2023-04-08T14:34:29.604Z,100071.56
2023-04-08T14:39:21.765Z,100065.06
2023-04-08T14:44:13.391Z,100066.53
2023-04-08T14:49:05.009Z,100055.94
2023-04-08T14:53:56.648Z,100054.50
2023-04-08T14:58:48.274Z,100058.25
2023-04-08T15:03:40.041Z,100040.34
2023-04-08T15:08:31.962Z,100046.25
2023-04-08T15:13:23.753Z,100035.16
2023-04-08T15:18:15.564Z,100033.31
2023-04-08T15:23:07.965Z,100039.88
2023-04-08T15:27:59.586Z,100041.72
2023-04-08T15:32:52.598Z,100037.34
2023-04-08T15:37:44.503Z,100033.22
2023-04-08T15:42:36.156Z,100025.34
2023-04-08T15:47:28.242Z,100034.88
2023-04-08T15:52:19.880Z,100027.66
2023-04-08T15:57:11.593Z,100034.38
2023-04-08T16:02:03.350Z,100034.00
2023-04-08T16:06:55.066Z,100033.16
2023-04-08T16:11:46.677Z,100033.75
2023-04-08T16:16:38.872Z,100033.66
2023-04-08T16:21:31.492Z,100030.09
2023-04-08T16:26:24.325Z,100032.00
2023-04-08T16:31:16.638Z,100028.91
2023-04-08T16:36:09.764Z,100026.13
2023-04-08T16:41:01.588Z,100031.91
2023-04-08T16:45:53.777Z,100026.84
2023-04-08T16:50:45.684Z,100012.22
2023-04-08T16:55:37.809Z,100032.78
2023-04-08T17:00:30.522Z,100041.13
2023-04-08T17:05:23.046Z,100033.31
2023-04-08T17:10:15.483Z,100033.56
2023-04-08T17:15:08.142Z,100036.72
2023-04-08T17:19:59.862Z,100019.84
2023-04-08T17:24:51.583Z,100031.28
2023-04-08T17:29:43.202Z,100027.75
2023-04-08T17:34:34.953Z,100023.63
2023-04-08T17:39:26.731Z,100028.97
2023-04-08T17:44:18.403Z,100027.31
2023-04-08T17:49:14.250Z,100021.97
2023-04-08T17:54:06.105Z,100028.34
2023-04-08T17:58:57.808Z,100033.56
2023-04-08T18:03:52.578Z,100025.94
2023-04-08T18:08:45.154Z,100037.94
2023-04-08T18:13:36.808Z,100031.88
2023-04-08T18:18:28.435Z,100034.72
2023-04-08T18:23:19.974Z,100045.75
2023-04-08T18:28:11.931Z,100043.81
2023-04-08T18:33:04.156Z,100050.06
2023-04-08T18:37:56.517Z,100046.09
2023-04-08T18:42:48.204Z,100046.03
2023-04-08T18:47:40.484Z,100043.50
2023-04-08T18:52:32.534Z,100045.09
2023-04-08T18:57:24.762Z,100048.00
2023-04-08T19:02:16.767Z,100053.94
2023-04-08T19:07:08.682Z,100054.84
2023-04-08T19:12:00.550Z,100061.63
2023-04-08T19:16:52.531Z,100060.50
2023-04-08T19:21:44.152Z,100052.47
2023-04-08T19:26:36.318Z,100056.31
2023-04-08T19:31:28.672Z,100047.59
2023-04-08T19:36:20.457Z,100058.78
2023-04-08T19:41:12.064Z,100061.09
2023-04-08T19:46:03.992Z,100064.31
2023-04-08T19:50:55.620Z,100064.38
2023-04-08T19:55:47.384Z,100067.78
2023-04-08T20:00:39.437Z,100067.25
2023-04-08T20:05:31.193Z,100068.34
2023-04-08T20:10:23.310Z,100064.00
2023-04-08T20:15:24.168Z,100069.47
2023-04-08T20:20:17.028Z,100074.50
2023-04-08T20:25:08.656Z,100073.25
2023-04-08T20:30:01.445Z,100072.91
2023-04-08T20:34:53.089Z,100076.06
2023-04-08T20:39:44.738Z,100068.75
2023-04-08T20:44:36.453Z,100066.28
2023-04-08T20:49:28.137Z,100063.81
2023-04-08T20:54:19.819Z,100064.66
2023-04-08T20:59:11.821Z,100065.13
2023-04-08T21:04:04.937Z,100052.00
2023-04-08T21:08:56.592Z,100070.63
2023-04-08T21:13:49.084Z,100057.28
2023-04-08T21:18:41.179Z,100053.56
2023-04-08T21:23:32.850Z,100057.16
2023-04-08T21:28:24.507Z,100057.56
2023-04-08T21:33:16.102Z,100063.00
2023-04-08T21:38:07.785Z,100056.50
2023-04-08T21:42:59.353Z,100060.66
2023-04-08T21:47:51.239Z,100055.66
2023-04-08T21:52:44.013Z,100054.38
2023-04-08T21:57:35.825Z,100058.31
2023-04-08T22:02:27.595Z,100058.06
2023-04-08T22:07:19.445Z,100058.47
2023-04-08T22:12:11.601Z,100053.66
2023-04-08T22:17:04.765Z,100056.50
2023-04-08T22:21:56.526Z,100057.09
2023-04-08T22:26:48.209Z,100057.28
2023-04-08T22:31:39.844Z,100061.19
2023-04-08T22:36:31.657Z,100058.63
2023-04-08T22:41:24.275Z,100063.81
2023-04-08T22:46:18.459Z,100055.00
2023-04-08T22:51:10.761Z,100064.50
2023-04-08T22:56:03.361Z,100069.06
2023-04-08T23:00:54.975Z,100056.91
2023-04-08T23:05:46.704Z,100047.50
2023-04-08T23:10:38.316Z,100052.69
2023-04-08T23:15:30.207Z,100037.25
2023-04-08T23:20:21.867Z,100029.53
2023-04-08T23:25:13.680Z,100022.56
2023-04-08T23:30:05.992Z,100025.66
2023-04-08T23:34:57.645Z,100020.00
2023-04-08T23:39:49.748Z,100024.97
2023-04-08T23:44:41.753Z,100017.25
2023-04-08T23:49:34.324Z,100028.81
2023-04-08T23:54:30.471Z,100015.91
2023-04-08T23:59:22.044Z,100014.59
